sensor_id;sensor_type;location;lat;lon;timestamp;temperature;humidity
10149;DHT22;5115;50.920;6.376;2023-06-24T00:01:48;20.60;99.90
10149;DHT22;5115;50.920;6.376;2023-06-24T00:04:14;20.40;99.90
10149;DHT22;5115;50.920;6.376;2023-06-24T00:06:40;20.30;99.90
10149;DHT22;5115;50.920;6.376;2023-06-24T00:09:06;20.10;99.90
10149;DHT22;5115;50.920;6.376;2023-06-24T00:11:33;19.90;99.90
10149;DHT22;5115;50.920;6.376;2023-06-24T00:13:58;19.80;99.90
10149;DHT22;5115;50.920;6.376;2023-06-24T00:16:24;19.60;99.90
10149;DHT22;5115;50.920;6.376;2023-06-24T00:18:56;19.50;99.90
10149;DHT22;5115;50.920;6.376;2023-06-24T00:21:26;19.50;99.90
10149;DHT22;5115;50.920;6.376;2023-06-24T00:23:57;19.50;99.90
10149;DHT22;5115;50.920;6.376;2023-06-24T00:26:24;19.50;99.90
10149;DHT22;5115;50.920;6.376;2023-06-24T00:28:49;19.60;99.90
10149;DHT22;5115;50.920;6.376;2023-06-24T00:31:15;19.70;99.90
10149;DHT22;5115;50.920;6.376;2023-06-24T00:33:41;19.70;99.90
10149;DHT22;5115;50.920;6.376;2023-06-24T00:36:07;19.70;99.90
10149;DHT22;5115;50.920;6.376;2023-06-24T00:38:37;19.70;99.90
10149;DHT22;5115;50.920;6.376;2023-06-24T00:41:03;19.80;99.90
10149;DHT22;5115;50.920;6.376;2023-06-24T00:43:29;19.80;99.90
10149;DHT22;5115;50.920;6.376;2023-06-24T00:45:56;19.80;99.90
10149;DHT22;5115;50.920;6.376;2023-06-24T00:48:22;19.70;99.90
10149;DHT22;5115;50.920;6.376;2023-06-24T00:50:48;19.60;99.90
10149;DHT22;5115;50.920;6.376;2023-06-24T00:53:18;19.60;99.90
10149;DHT22;5115;50.920;6.376;2023-06-24T00:55:44;19.70;99.90
10149;DHT22;5115;50.920;6.376;2023-06-24T00:58:11;19.80;99.90
10149;DHT22;5115;50.920;6.376;2023-06-24T01:00:44;19.80;99.90
10149;DHT22;5115;50.920;6.376;2023-06-24T01:03:11;19.80;99.90
10149;DHT22;5115;50.920;6.376;2023-06-24T01:05:46;19.90;99.90
10149;DHT22;5115;50.920;6.376;2023-06-24T01:08:11;19.90;99.90
10149;DHT22;5115;50.920;6.376;2023-06-24T01:10:41;19.90;99.90
10149;DHT22;5115;50.920;6.376;2023-06-24T01:13:07;19.90;99.90
10149;DHT22;5115;50.920;6.376;2023-06-24T01:15:33;19.90;99.90
10149;DHT22;5115;50.920;6.376;2023-06-24T01:18:13;19.90;99.90
10149;DHT22;5115;50.920;6.376;2023-06-24T01:34:21;19.40;99.90
10149;DHT22;5115;50.920;6.376;2023-06-24T01:36:58;19.40;99.90
10149;DHT22;5115;50.920;6.376;2023-06-24T01:39:27;19.40;99.90
10149;DHT22;5115;50.920;6.376;2023-06-24T01:42:10;19.30;99.90
10149;DHT22;5115;50.920;6.376;2023-06-24T01:44:38;19.40;99.90
10149;DHT22;5115;50.920;6.376;2023-06-24T01:47:06;19.50;99.90
10149;DHT22;5115;50.920;6.376;2023-06-24T01:49:33;19.50;99.90
10149;DHT22;5115;50.920;6.376;2023-06-24T01:52:03;19.60;99.90
10149;DHT22;5115;50.920;6.376;2023-06-24T01:54:31;19.60;99.90
10149;DHT22;5115;50.920;6.376;2023-06-24T01:56:59;19.70;99.90
10149;DHT22;5115;50.920;6.376;2023-06-24T01:59:27;19.70;99.90
10149;DHT22;5115;50.920;6.376;2023-06-24T02:01:54;19.70;99.90
10149;DHT22;5115;50.920;6.376;2023-06-24T02:04:23;19.60;99.90
10149;DHT22;5115;50.920;6.376;2023-06-24T02:06:50;19.50;99.90
10149;DHT22;5115;50.920;6.376;2023-06-24T02:09:17;19.40;99.90
10149;DHT22;5115;50.920;6.376;2023-06-24T02:11:45;19.30;99.90
10149;DHT22;5115;50.920;6.376;2023-06-24T02:14:12;19.30;99.90
10149;DHT22;5115;50.920;6.376;2023-06-24T02:16:42;19.30;99.90
10149;DHT22;5115;50.920;6.376;2023-06-24T02:19:09;18.70;99.90
10149;DHT22;5115;50.920;6.376;2023-06-24T02:21:39;18.90;99.90
10149;DHT22;5115;50.920;6.376;2023-06-24T02:24:06;18.80;99.90
10149;DHT22;5115;50.920;6.376;2023-06-24T02:26:31;18.70;99.90
10149;DHT22;5115;50.920;6.376;2023-06-24T02:28:58;18.80;99.90
10149;DHT22;5115;50.920;6.376;2023-06-24T02:31:23;18.70;99.90
10149;DHT22;5115;50.920;6.376;2023-06-24T02:33:49;18.70;99.90
10149;DHT22;5115;50.920;6.376;2023-06-24T02:36:15;18.60;99.90
10149;DHT22;5115;50.920;6.376;2023-06-24T02:38:40;18.70;99.90
10149;DHT22;5115;50.920;6.376;2023-06-24T02:41:06;18.60;99.90
10149;DHT22;5115;50.920;6.376;2023-06-24T02:43:32;18.70;99.90
10149;DHT22;5115;50.920;6.376;2023-06-24T02:46:01;18.70;99.90
10149;DHT22;5115;50.920;6.376;2023-06-24T02:48:30;18.90;99.90
10149;DHT22;5115;50.920;6.376;2023-06-24T02:50:58;19.10;99.90
10149;DHT22;5115;50.920;6.376;2023-06-24T02:53:24;19.00;99.90
10149;DHT22;5115;50.920;6.376;2023-06-24T02:55:50;19.10;99.90
10149;DHT22;5115;50.920;6.376;2023-06-24T02:58:16;19.20;99.90
10149;DHT22;5115;50.920;6.376;2023-06-24T03:00:42;19.30;99.90
10149;DHT22;5115;50.920;6.376;2023-06-24T03:03:08;19.30;99.90
10149;DHT22;5115;50.920;6.376;2023-06-24T03:05:35;19.30;99.90
10149;DHT22;5115;50.920;6.376;2023-06-24T03:08:01;19.20;99.90
10149;DHT22;5115;50.920;6.376;2023-06-24T03:10:29;19.20;99.90
10149;DHT22;5115;50.920;6.376;2023-06-24T03:12:55;19.10;99.90
10149;DHT22;5115;50.920;6.376;2023-06-24T03:15:21;19.10;99.90
10149;DHT22;5115;50.920;6.376;2023-06-24T03:17:47;19.10;99.90
10149;DHT22;5115;50.920;6.376;2023-06-24T03:20:12;19.10;99.90
10149;DHT22;5115;50.920;6.376;2023-06-24T03:22:38;18.80;99.90
10149;DHT22;5115;50.920;6.376;2023-06-24T03:25:04;18.70;99.90
10149;DHT22;5115;50.920;6.376;2023-06-24T03:27:29;18.60;99.90
10149;DHT22;5115;50.920;6.376;2023-06-24T03:29:56;18.50;99.90
10149;DHT22;5115;50.920;6.376;2023-06-24T03:32:23;18.50;99.90
10149;DHT22;5115;50.920;6.376;2023-06-24T03:34:49;18.50;99.90
10149;DHT22;5115;50.920;6.376;2023-06-24T03:37:14;18.40;99.90
10149;DHT22;5115;50.920;6.376;2023-06-24T03:39:41;18.30;99.90
10149;DHT22;5115;50.920;6.376;2023-06-24T03:42:08;18.40;99.90
10149;DHT22;5115;50.920;6.376;2023-06-24T03:44:33;18.60;99.90
10149;DHT22;5115;50.920;6.376;2023-06-24T03:46:59;18.60;99.90
10149;DHT22;5115;50.920;6.376;2023-06-24T03:49:25;18.60;99.90
10149;DHT22;5115;50.920;6.376;2023-06-24T03:51:50;18.60;99.90
10149;DHT22;5115;50.920;6.376;2023-06-24T03:54:17;18.70;99.90
10149;DHT22;5115;50.920;6.376;2023-06-24T03:56:43;18.80;99.90
10149;DHT22;5115;50.920;6.376;2023-06-24T03:59:09;18.80;99.90
10149;DHT22;5115;50.920;6.376;2023-06-24T04:01:34;18.80;99.90
10149;DHT22;5115;50.920;6.376;2023-06-24T04:04:02;18.90;99.90
10149;DHT22;5115;50.920;6.376;2023-06-24T04:06:27;18.90;99.90
10149;DHT22;5115;50.920;6.376;2023-06-24T04:08:53;19.00;99.90
10149;DHT22;5115;50.920;6.376;2023-06-24T04:11:19;19.10;99.90
10149;DHT22;5115;50.920;6.376;2023-06-24T04:13:45;19.00;99.90
10149;DHT22;5115;50.920;6.376;2023-06-24T04:16:11;19.00;99.90
10149;DHT22;5115;50.920;6.376;2023-06-24T04:18:36;18.90;99.90
10149;DHT22;5115;50.920;6.376;2023-06-24T04:21:05;18.90;99.90
10149;DHT22;5115;50.920;6.376;2023-06-24T04:23:32;19.00;99.90
10149;DHT22;5115;50.920;6.376;2023-06-24T04:25:58;19.00;99.90
10149;DHT22;5115;50.920;6.376;2023-06-24T04:28:23;19.10;99.90
10149;DHT22;5115;50.920;6.376;2023-06-24T04:30:49;19.30;99.90
10149;DHT22;5115;50.920;6.376;2023-06-24T04:33:16;19.40;99.90
10149;DHT22;5115;50.920;6.376;2023-06-24T04:35:41;19.30;99.90
10149;DHT22;5115;50.920;6.376;2023-06-24T04:38:07;19.60;99.90
10149;DHT22;5115;50.920;6.376;2023-06-24T04:40:33;19.60;99.90
10149;DHT22;5115;50.920;6.376;2023-06-24T04:42:58;19.80;99.90
10149;DHT22;5115;50.920;6.376;2023-06-24T04:45:24;19.70;99.90
10149;DHT22;5115;50.920;6.376;2023-06-24T04:47:51;19.60;99.90
10149;DHT22;5115;50.920;6.376;2023-06-24T04:50:16;19.80;99.90
10149;DHT22;5115;50.920;6.376;2023-06-24T04:52:42;20.00;99.90
10149;DHT22;5115;50.920;6.376;2023-06-24T04:55:08;20.00;99.90
10149;DHT22;5115;50.920;6.376;2023-06-24T04:57:34;20.00;99.90
10149;DHT22;5115;50.920;6.376;2023-06-24T04:59:59;20.30;99.90
10149;DHT22;5115;50.920;6.376;2023-06-24T05:02:25;20.40;99.90
10149;DHT22;5115;50.920;6.376;2023-06-24T05:04:52;20.60;99.90
10149;DHT22;5115;50.920;6.376;2023-06-24T05:07:17;20.70;99.90
10149;DHT22;5115;50.920;6.376;2023-06-24T05:09:46;20.80;99.90
10149;DHT22;5115;50.920;6.376;2023-06-24T05:12:12;21.10;99.90
10149;DHT22;5115;50.920;6.376;2023-06-24T05:14:37;21.30;99.90
10149;DHT22;5115;50.920;6.376;2023-06-24T05:17:03;21.50;99.90
10149;DHT22;5115;50.920;6.376;2023-06-24T05:19:29;21.80;99.90
10149;DHT22;5115;50.920;6.376;2023-06-24T05:21:55;22.10;99.90
10149;DHT22;5115;50.920;6.376;2023-06-24T05:24:21;22.30;99.90
10149;DHT22;5115;50.920;6.376;2023-06-24T05:26:48;22.40;99.90
10149;DHT22;5115;50.920;6.376;2023-06-24T05:29:14;22.80;99.90
10149;DHT22;5115;50.920;6.376;2023-06-24T05:31:41;22.90;99.90
10149;DHT22;5115;50.920;6.376;2023-06-24T05:34:07;22.80;99.90
10149;DHT22;5115;50.920;6.376;2023-06-24T05:36:33;22.80;99.90
10149;DHT22;5115;50.920;6.376;2023-06-24T05:38:59;23.00;99.90
10149;DHT22;5115;50.920;6.376;2023-06-24T05:41:26;23.20;99.90
10149;DHT22;5115;50.920;6.376;2023-06-24T05:44:06;23.30;99.90
10149;DHT22;5115;50.920;6.376;2023-06-24T05:46:33;23.40;99.90
10149;DHT22;5115;50.920;6.376;2023-06-24T05:48:58;23.60;99.90
10149;DHT22;5115;50.920;6.376;2023-06-24T05:51:24;23.70;99.90
10149;DHT22;5115;50.920;6.376;2023-06-24T05:53:50;23.80;99.90
10149;DHT22;5115;50.920;6.376;2023-06-24T05:56:15;23.80;99.90
10149;DHT22;5115;50.920;6.376;2023-06-24T05:58:41;23.90;99.90
10149;DHT22;5115;50.920;6.376;2023-06-24T06:01:10;23.90;99.90
10149;DHT22;5115;50.920;6.376;2023-06-24T06:03:36;24.10;99.90
10149;DHT22;5115;50.920;6.376;2023-06-24T06:06:01;24.30;99.90
10149;DHT22;5115;50.920;6.376;2023-06-24T06:08:27;24.40;99.90
10149;DHT22;5115;50.920;6.376;2023-06-24T06:10:53;24.40;99.90
10149;DHT22;5115;50.920;6.376;2023-06-24T06:13:18;24.60;99.90
10149;DHT22;5115;50.920;6.376;2023-06-24T06:15:44;24.80;99.90
10149;DHT22;5115;50.920;6.376;2023-06-24T06:18:09;25.10;99.90
10149;DHT22;5115;50.920;6.376;2023-06-24T06:20:35;25.30;99.90
10149;DHT22;5115;50.920;6.376;2023-06-24T06:23:01;25.40;99.90
10149;DHT22;5115;50.920;6.376;2023-06-24T06:25:26;25.60;99.90
10149;DHT22;5115;50.920;6.376;2023-06-24T06:27:53;25.70;99.90
10149;DHT22;5115;50.920;6.376;2023-06-24T06:30:19;25.60;99.90
10149;DHT22;5115;50.920;6.376;2023-06-24T06:32:45;25.70;99.90
10149;DHT22;5115;50.920;6.376;2023-06-24T06:35:10;25.80;99.90
10149;DHT22;5115;50.920;6.376;2023-06-24T06:37:36;25.80;99.90
10149;DHT22;5115;50.920;6.376;2023-06-24T06:40:02;25.90;99.90
10149;DHT22;5115;50.920;6.376;2023-06-24T06:42:29;26.00;99.90
10149;DHT22;5115;50.920;6.376;2023-06-24T06:44:55;25.90;99.90
10149;DHT22;5115;50.920;6.376;2023-06-24T06:47:20;26.20;99.90
10149;DHT22;5115;50.920;6.376;2023-06-24T06:49:46;26.70;99.90
10149;DHT22;5115;50.920;6.376;2023-06-24T06:52:11;27.00;99.90
10149;DHT22;5115;50.920;6.376;2023-06-24T06:54:37;27.40;99.90
10149;DHT22;5115;50.920;6.376;2023-06-24T06:57:03;27.70;99.90
10149;DHT22;5115;50.920;6.376;2023-06-24T06:59:30;27.90;99.90
10149;DHT22;5115;50.920;6.376;2023-06-24T07:01:56;27.90;99.90
10149;DHT22;5115;50.920;6.376;2023-06-24T07:04:22;27.90;99.90
10149;DHT22;5115;50.920;6.376;2023-06-24T07:06:47;28.10;99.90
10149;DHT22;5115;50.920;6.376;2023-06-24T07:09:13;28.30;99.90
10149;DHT22;5115;50.920;6.376;2023-06-24T07:11:39;28.00;99.90
10149;DHT22;5115;50.920;6.376;2023-06-24T07:14:04;28.00;99.90
10149;DHT22;5115;50.920;6.376;2023-06-24T07:16:30;28.00;99.90
10149;DHT22;5115;50.920;6.376;2023-06-24T07:18:55;27.90;99.90
10149;DHT22;5115;50.920;6.376;2023-06-24T07:21:21;27.80;99.90
10149;DHT22;5115;50.920;6.376;2023-06-24T07:23:47;27.90;99.90
10149;DHT22;5115;50.920;6.376;2023-06-24T07:26:13;28.20;99.90
10149;DHT22;5115;50.920;6.376;2023-06-24T07:28:38;28.20;99.90
10149;DHT22;5115;50.920;6.376;2023-06-24T07:31:04;28.40;99.90
10149;DHT22;5115;50.920;6.376;2023-06-24T07:33:29;28.80;99.90
10149;DHT22;5115;50.920;6.376;2023-06-24T07:35:56;29.30;99.90
10149;DHT22;5115;50.920;6.376;2023-06-24T07:38:25;29.70;99.90
10149;DHT22;5115;50.920;6.376;2023-06-24T07:40:50;30.30;99.90
10149;DHT22;5115;50.920;6.376;2023-06-24T07:43:16;30.50;99.90
10149;DHT22;5115;50.920;6.376;2023-06-24T07:45:41;30.80;99.90
10149;DHT22;5115;50.920;6.376;2023-06-24T07:48:07;30.30;99.90
10149;DHT22;5115;50.920;6.376;2023-06-24T07:50:33;29.90;99.90
10149;DHT22;5115;50.920;6.376;2023-06-24T07:52:59;29.80;99.90
10149;DHT22;5115;50.920;6.376;2023-06-24T07:55:25;29.80;99.90
10149;DHT22;5115;50.920;6.376;2023-06-24T07:57:51;29.80;99.90
10149;DHT22;5115;50.920;6.376;2023-06-24T08:00:16;29.90;99.90
10149;DHT22;5115;50.920;6.376;2023-06-24T08:02:42;30.00;99.90
10149;DHT22;5115;50.920;6.376;2023-06-24T08:05:08;29.70;99.90
10149;DHT22;5115;50.920;6.376;2023-06-24T08:07:37;30.30;99.90
10149;DHT22;5115;50.920;6.376;2023-06-24T08:10:04;30.90;99.90
10149;DHT22;5115;50.920;6.376;2023-06-24T08:12:30;31.50;99.90
10149;DHT22;5115;50.920;6.376;2023-06-24T08:14:56;31.80;99.90
10149;DHT22;5115;50.920;6.376;2023-06-24T08:17:22;32.10;99.90
10149;DHT22;5115;50.920;6.376;2023-06-24T08:19:48;32.50;99.90
10149;DHT22;5115;50.920;6.376;2023-06-24T08:22:13;32.90;99.90
10149;DHT22;5115;50.920;6.376;2023-06-24T08:24:40;32.30;99.90
10149;DHT22;5115;50.920;6.376;2023-06-24T08:27:05;32.00;99.90
10149;DHT22;5115;50.920;6.376;2023-06-24T08:29:31;32.30;99.90
10149;DHT22;5115;50.920;6.376;2023-06-24T08:31:56;32.70;99.90
10149;DHT22;5115;50.920;6.376;2023-06-24T08:34:22;32.90;99.90
10149;DHT22;5115;50.920;6.376;2023-06-24T08:36:48;32.40;99.90
10149;DHT22;5115;50.920;6.376;2023-06-24T08:39:13;32.40;99.90
10149;DHT22;5115;50.920;6.376;2023-06-24T08:41:39;32.60;99.90
10149;DHT22;5115;50.920;6.376;2023-06-24T08:44:04;32.70;99.90
10149;DHT22;5115;50.920;6.376;2023-06-24T08:46:31;32.70;99.90
10149;DHT22;5115;50.920;6.376;2023-06-24T08:49:25;32.80;99.90
10149;DHT22;5115;50.920;6.376;2023-06-24T08:54:26;31.80;99.90
10149;DHT22;5115;50.920;6.376;2023-06-24T08:56:52;31.40;99.90
10149;DHT22;5115;50.920;6.376;2023-06-24T08:59:18;31.30;99.90
10149;DHT22;5115;50.920;6.376;2023-06-24T09:01:49;31.60;99.90
10149;DHT22;5115;50.920;6.376;2023-06-24T09:04:15;31.30;99.90
10149;DHT22;5115;50.920;6.376;2023-06-24T09:06:41;31.10;99.90
10149;DHT22;5115;50.920;6.376;2023-06-24T09:09:17;31.40;99.90
10149;DHT22;5115;50.920;6.376;2023-06-24T09:11:51;31.80;99.90
10149;DHT22;5115;50.920;6.376;2023-06-24T09:14:17;31.80;99.90
10149;DHT22;5115;50.920;6.376;2023-06-24T09:16:51;31.80;99.90
10149;DHT22;5115;50.920;6.376;2023-06-24T09:19:20;31.90;99.90
10149;DHT22;5115;50.920;6.376;2023-06-24T09:21:46;31.90;99.90
10149;DHT22;5115;50.920;6.376;2023-06-24T09:24:12;32.20;99.90
10149;DHT22;5115;50.920;6.376;2023-06-24T09:26:37;32.50;99.90
10149;DHT22;5115;50.920;6.376;2023-06-24T09:29:04;32.70;99.10
10149;DHT22;5115;50.920;6.376;2023-06-24T09:31:29;32.90;99.90
10149;DHT22;5115;50.920;6.376;2023-06-24T09:33:58;33.20;99.90
10149;DHT22;5115;50.920;6.376;2023-06-24T09:36:24;33.20;99.50
10149;DHT22;5115;50.920;6.376;2023-06-24T09:38:49;33.20;99.90
10149;DHT22;5115;50.920;6.376;2023-06-24T09:41:15;32.90;99.90
10149;DHT22;5115;50.920;6.376;2023-06-24T09:43:42;33.00;99.90
10149;DHT22;5115;50.920;6.376;2023-06-24T09:46:09;33.30;99.90
10149;DHT22;5115;50.920;6.376;2023-06-24T09:48:35;33.80;99.90
10149;DHT22;5115;50.920;6.376;2023-06-24T09:51:02;33.70;99.00
10149;DHT22;5115;50.920;6.376;2023-06-24T09:53:31;33.80;99.70
10149;DHT22;5115;50.920;6.376;2023-06-24T09:55:59;34.30;99.30
10149;DHT22;5115;50.920;6.376;2023-06-24T09:58:25;34.00;97.20
10149;DHT22;5115;50.920;6.376;2023-06-24T10:00:51;34.00;97.50
10149;DHT22;5115;50.920;6.376;2023-06-24T10:03:17;33.70;97.10
10149;DHT22;5115;50.920;6.376;2023-06-24T10:05:43;33.70;96.70
10149;DHT22;5115;50.920;6.376;2023-06-24T10:08:10;33.80;97.70
10149;DHT22;5115;50.920;6.376;2023-06-24T10:10:36;33.90;96.20
10149;DHT22;5115;50.920;6.376;2023-06-24T10:13:02;34.10;95.30
10149;DHT22;5115;50.920;6.376;2023-06-24T10:15:27;34.40;95.60
10149;DHT22;5115;50.920;6.376;2023-06-24T10:17:53;34.40;94.80
10149;DHT22;5115;50.920;6.376;2023-06-24T10:20:25;34.60;95.40
10149;DHT22;5115;50.920;6.376;2023-06-24T10:22:52;34.10;95.30
10149;DHT22;5115;50.920;6.376;2023-06-24T10:25:17;34.00;94.20
10149;DHT22;5115;50.920;6.376;2023-06-24T10:27:43;33.70;94.00
10149;DHT22;5115;50.920;6.376;2023-06-24T10:30:17;33.30;94.40
10149;DHT22;5115;50.920;6.376;2023-06-24T10:32:44;33.50;95.80
10149;DHT22;5115;50.920;6.376;2023-06-24T10:37:59;33.70;94.60
10149;DHT22;5115;50.920;6.376;2023-06-24T10:40:39;33.80;93.90
10149;DHT22;5115;50.920;6.376;2023-06-24T10:43:31;33.80;93.10
10149;DHT22;5115;50.920;6.376;2023-06-24T10:45:57;33.70;91.70
10149;DHT22;5115;50.920;6.376;2023-06-24T10:48:24;33.50;92.30
10149;DHT22;5115;50.920;6.376;2023-06-24T10:50:50;33.60;92.10
10149;DHT22;5115;50.920;6.376;2023-06-24T10:53:16;33.30;91.50
10149;DHT22;5115;50.920;6.376;2023-06-24T10:55:44;33.30;90.60
10149;DHT22;5115;50.920;6.376;2023-06-24T10:58:13;33.00;92.30
10149;DHT22;5115;50.920;6.376;2023-06-24T11:00:40;33.20;92.20
10149;DHT22;5115;50.920;6.376;2023-06-24T11:03:10;33.40;92.10
10149;DHT22;5115;50.920;6.376;2023-06-24T11:05:45;33.40;91.80
10149;DHT22;5115;50.920;6.376;2023-06-24T11:08:11;33.20;92.30
10149;DHT22;5115;50.920;6.376;2023-06-24T11:10:44;33.20;92.10
10149;DHT22;5115;50.920;6.376;2023-06-24T11:13:10;32.90;91.40
10149;DHT22;5115;50.920;6.376;2023-06-24T11:15:36;32.90;91.70
10149;DHT22;5115;50.920;6.376;2023-06-24T11:18:04;32.90;91.90
10149;DHT22;5115;50.920;6.376;2023-06-24T11:20:30;32.90;91.50
10149;DHT22;5115;50.920;6.376;2023-06-24T11:22:55;33.20;91.80
10149;DHT22;5115;50.920;6.376;2023-06-24T11:25:22;33.10;91.20
10149;DHT22;5115;50.920;6.376;2023-06-24T11:27:50;33.00;90.40
10149;DHT22;5115;50.920;6.376;2023-06-24T11:30:17;32.80;88.30
10149;DHT22;5115;50.920;6.376;2023-06-24T11:32:44;32.70;89.20
10149;DHT22;5115;50.920;6.376;2023-06-24T11:35:11;32.70;87.90
10149;DHT22;5115;50.920;6.376;2023-06-24T11:37:41;32.60;89.20
10149;DHT22;5115;50.920;6.376;2023-06-24T11:40:08;32.70;87.80
10149;DHT22;5115;50.920;6.376;2023-06-24T11:42:39;32.80;89.30
10149;DHT22;5115;50.920;6.376;2023-06-24T11:45:07;33.00;88.10
10149;DHT22;5115;50.920;6.376;2023-06-24T11:47:34;33.10;87.30
10149;DHT22;5115;50.920;6.376;2023-06-24T11:50:00;32.80;87.10
10149;DHT22;5115;50.920;6.376;2023-06-24T11:55:01;32.30;86.80
10149;DHT22;5115;50.920;6.376;2023-06-24T11:58:07;32.40;87.50
10149;DHT22;5115;50.920;6.376;2023-06-24T12:00:36;32.50;87.30
10149;DHT22;5115;50.920;6.376;2023-06-24T12:03:06;32.30;87.20
10149;DHT22;5115;50.920;6.376;2023-06-24T12:05:33;32.00;87.00
10149;DHT22;5115;50.920;6.376;2023-06-24T12:08:06;32.10;85.60
10149;DHT22;5115;50.920;6.376;2023-06-24T12:10:33;32.00;85.70
10149;DHT22;5115;50.920;6.376;2023-06-24T12:13:03;31.90;86.60
10149;DHT22;5115;50.920;6.376;2023-06-24T12:15:31;31.70;86.80
10149;DHT22;5115;50.920;6.376;2023-06-24T12:17:57;31.60;88.70
10149;DHT22;5115;50.920;6.376;2023-06-24T12:20:24;31.40;88.10
10149;DHT22;5115;50.920;6.376;2023-06-24T12:22:50;31.30;87.30
10149;DHT22;5115;50.920;6.376;2023-06-24T12:25:17;31.30;88.60
10149;DHT22;5115;50.920;6.376;2023-06-24T12:27:44;31.30;86.30
10149;DHT22;5115;50.920;6.376;2023-06-24T12:30:10;31.40;86.40
10149;DHT22;5115;50.920;6.376;2023-06-24T12:32:36;31.50;85.60
10149;DHT22;5115;50.920;6.376;2023-06-24T12:35:02;31.60;84.60
10149;DHT22;5115;50.920;6.376;2023-06-24T12:37:32;31.50;84.10
10149;DHT22;5115;50.920;6.376;2023-06-24T12:39:58;31.40;84.40
10149;DHT22;5115;50.920;6.376;2023-06-24T12:42:25;31.30;84.00
10149;DHT22;5115;50.920;6.376;2023-06-24T12:44:50;31.10;84.30
10149;DHT22;5115;50.920;6.376;2023-06-24T12:47:16;31.00;85.40
10149;DHT22;5115;50.920;6.376;2023-06-24T12:49:41;31.20;83.60
10149;DHT22;5115;50.920;6.376;2023-06-24T12:52:07;31.50;83.40
10149;DHT22;5115;50.920;6.376;2023-06-24T12:54:33;31.00;84.70
10149;DHT22;5115;50.920;6.376;2023-06-24T12:57:01;30.90;85.20
10149;DHT22;5115;50.920;6.376;2023-06-24T12:59:26;31.00;85.80
10149;DHT22;5115;50.920;6.376;2023-06-24T13:01:52;31.10;86.40
10149;DHT22;5115;50.920;6.376;2023-06-24T13:04:18;31.20;85.10
10149;DHT22;5115;50.920;6.376;2023-06-24T13:06:46;31.10;85.10
10149;DHT22;5115;50.920;6.376;2023-06-24T13:09:11;31.10;85.00
10149;DHT22;5115;50.920;6.376;2023-06-24T13:11:37;30.80;83.70
10149;DHT22;5115;50.920;6.376;2023-06-24T13:14:03;30.70;83.40
10149;DHT22;5115;50.920;6.376;2023-06-24T13:16:28;30.70;84.40
10149;DHT22;5115;50.920;6.376;2023-06-24T13:18:54;30.70;85.20
10149;DHT22;5115;50.920;6.376;2023-06-24T13:21:20;30.60;87.50
10149;DHT22;5115;50.920;6.376;2023-06-24T13:23:45;30.50;86.70
10149;DHT22;5115;50.920;6.376;2023-06-24T13:26:12;30.50;85.70
10149;DHT22;5115;50.920;6.376;2023-06-24T13:28:37;30.40;83.40
10149;DHT22;5115;50.920;6.376;2023-06-24T13:31:03;30.50;85.20
10149;DHT22;5115;50.920;6.376;2023-06-24T13:33:29;30.40;85.30
10149;DHT22;5115;50.920;6.376;2023-06-24T13:35:55;30.40;84.90
10149;DHT22;5115;50.920;6.376;2023-06-24T13:38:21;30.40;84.50
10149;DHT22;5115;50.920;6.376;2023-06-24T13:40:47;30.50;84.30
10149;DHT22;5115;50.920;6.376;2023-06-24T13:43:13;30.60;84.20
10149;DHT22;5115;50.920;6.376;2023-06-24T13:45:38;30.50;81.80
10149;DHT22;5115;50.920;6.376;2023-06-24T13:48:04;30.50;84.60
10149;DHT22;5115;50.920;6.376;2023-06-24T13:50:29;30.40;82.90
10149;DHT22;5115;50.920;6.376;2023-06-24T13:52:55;30.30;81.60
10149;DHT22;5115;50.920;6.376;2023-06-24T13:55:21;30.40;82.80
10149;DHT22;5115;50.920;6.376;2023-06-24T13:57:47;30.60;81.70
10149;DHT22;5115;50.920;6.376;2023-06-24T14:00:13;30.50;82.30
10149;DHT22;5115;50.920;6.376;2023-06-24T14:02:39;30.40;82.30
10149;DHT22;5115;50.920;6.376;2023-06-24T14:05:06;30.40;80.90
10149;DHT22;5115;50.920;6.376;2023-06-24T14:07:32;30.30;80.90
10149;DHT22;5115;50.920;6.376;2023-06-24T14:09:57;30.30;80.40
10149;DHT22;5115;50.920;6.376;2023-06-24T14:12:23;30.30;80.80
10149;DHT22;5115;50.920;6.376;2023-06-24T14:14:48;30.30;82.40
10149;DHT22;5115;50.920;6.376;2023-06-24T14:17:14;30.30;80.70
10149;DHT22;5115;50.920;6.376;2023-06-24T14:19:40;30.30;82.80
10149;DHT22;5115;50.920;6.376;2023-06-24T14:22:07;30.00;81.40
10149;DHT22;5115;50.920;6.376;2023-06-24T14:24:33;30.00;78.70
10149;DHT22;5115;50.920;6.376;2023-06-24T14:26:58;30.00;80.10
10149;DHT22;5115;50.920;6.376;2023-06-24T14:29:24;30.00;81.90
10149;DHT22;5115;50.920;6.376;2023-06-24T14:31:51;30.10;80.90
10149;DHT22;5115;50.920;6.376;2023-06-24T14:34:17;30.10;81.90
10149;DHT22;5115;50.920;6.376;2023-06-24T14:36:43;30.20;81.20
10149;DHT22;5115;50.920;6.376;2023-06-24T14:39:09;29.80;82.70
10149;DHT22;5115;50.920;6.376;2023-06-24T14:41:36;29.60;84.10
10149;DHT22;5115;50.920;6.376;2023-06-24T14:44:02;29.80;83.90
10149;DHT22;5115;50.920;6.376;2023-06-24T14:46:27;29.70;83.80
10149;DHT22;5115;50.920;6.376;2023-06-24T14:48:53;29.70;83.30
10149;DHT22;5115;50.920;6.376;2023-06-24T14:51:19;29.60;82.20
10149;DHT22;5115;50.920;6.376;2023-06-24T14:53:45;29.30;85.40
10149;DHT22;5115;50.920;6.376;2023-06-24T14:56:11;29.50;86.30
10149;DHT22;5115;50.920;6.376;2023-06-24T14:58:36;29.50;85.70
10149;DHT22;5115;50.920;6.376;2023-06-24T15:01:02;29.60;85.00
10149;DHT22;5115;50.920;6.376;2023-06-24T15:03:27;29.60;83.90
10149;DHT22;5115;50.920;6.376;2023-06-24T15:05:53;29.60;84.70
10149;DHT22;5115;50.920;6.376;2023-06-24T15:08:18;29.50;87.10
10149;DHT22;5115;50.920;6.376;2023-06-24T15:10:44;29.70;87.00
10149;DHT22;5115;50.920;6.376;2023-06-24T15:13:10;29.60;87.80
10149;DHT22;5115;50.920;6.376;2023-06-24T15:15:35;29.50;87.80
10149;DHT22;5115;50.920;6.376;2023-06-24T15:18:01;29.60;84.60
10149;DHT22;5115;50.920;6.376;2023-06-24T15:20:26;29.60;83.80
10149;DHT22;5115;50.920;6.376;2023-06-24T15:22:52;29.50;84.80
10149;DHT22;5115;50.920;6.376;2023-06-24T15:25:18;29.30;80.70
10149;DHT22;5115;50.920;6.376;2023-06-24T15:27:43;29.20;80.00
10149;DHT22;5115;50.920;6.376;2023-06-24T15:30:09;29.20;82.70
10149;DHT22;5115;50.920;6.376;2023-06-24T15:32:37;29.20;84.20
10149;DHT22;5115;50.920;6.376;2023-06-24T15:35:04;29.20;84.20
10149;DHT22;5115;50.920;6.376;2023-06-24T15:37:29;29.20;84.20
10149;DHT22;5115;50.920;6.376;2023-06-24T15:39:55;29.50;83.00
10149;DHT22;5115;50.920;6.376;2023-06-24T15:42:21;29.60;83.30
10149;DHT22;5115;50.920;6.376;2023-06-24T15:44:47;29.30;84.30
10149;DHT22;5115;50.920;6.376;2023-06-24T15:47:13;29.30;83.30
10149;DHT22;5115;50.920;6.376;2023-06-24T15:49:39;29.40;82.60
10149;DHT22;5115;50.920;6.376;2023-06-24T15:52:04;29.40;83.10
10149;DHT22;5115;50.920;6.376;2023-06-24T15:54:30;29.30;84.60
10149;DHT22;5115;50.920;6.376;2023-06-24T15:56:55;29.40;85.30
10149;DHT22;5115;50.920;6.376;2023-06-24T15:59:21;29.40;84.50
10149;DHT22;5115;50.920;6.376;2023-06-24T16:01:46;29.60;84.50
10149;DHT22;5115;50.920;6.376;2023-06-24T16:04:12;29.40;83.40